createdAt,value
2017-09-12T00:00:27.807Z,14.30
2017-09-12T00:02:55.241Z,14.30
2017-09-12T00:05:23.441Z,14.30
2017-09-12T00:07:50.878Z,14.30
2017-09-12T00:10:19.080Z,14.20
2017-09-12T00:12:46.526Z,14.20
2017-09-12T00:15:13.961Z,14.20
2017-09-12T00:17:41.389Z,14.20
2017-09-12T00:20:08.821Z,14.20
2017-09-12T00:22:36.253Z,14.20
2017-09-12T00:25:03.690Z,14.20
2017-09-12T00:27:31.892Z,14.20
2017-09-12T00:29:59.330Z,14.20
2017-09-12T00:32:27.549Z,14.10
2017-09-12T00:34:58.430Z,14.10
2017-09-12T00:37:25.852Z,14.20
2017-09-12T00:39:53.351Z,14.20
2017-09-12T00:42:21.536Z,14.20
2017-09-12T00:44:48.969Z,14.20
2017-09-12T00:47:16.398Z,14.30
2017-09-12T00:49:43.829Z,14.30
2017-09-12T00:52:11.256Z,14.40
2017-09-12T00:54:39.465Z,14.30
2017-09-12T00:57:07.896Z,14.30
2017-09-12T00:59:35.338Z,14.30
2017-09-12T01:02:02.771Z,14.30
2017-09-12T01:04:30.204Z,14.30
2017-09-12T01:06:57.635Z,14.20
2017-09-12T01:09:25.848Z,14.20
2017-09-12T01:11:53.268Z,14.10
2017-09-12T01:14:21.478Z,14.00
2017-09-12T01:16:48.917Z,14.00
2017-09-12T01:19:16.352Z,13.90
2017-09-12T01:21:44.551Z,13.80
2017-09-12T01:24:11.973Z,13.80
2017-09-12T01:26:39.394Z,13.80
2017-09-12T01:29:06.824Z,13.80
2017-09-12T03:20:18.246Z,12.90
2017-09-12T03:22:45.677Z,12.80
2017-09-12T03:25:13.871Z,12.90
2017-09-12T03:27:41.309Z,12.90
2017-09-12T03:30:09.502Z,13.00
2017-09-12T03:32:36.936Z,12.90
2017-09-12T03:35:05.145Z,13.00
2017-09-12T03:37:32.622Z,13.00
2017-09-12T03:40:01.530Z,13.00
2017-09-12T03:42:29.075Z,13.00
2017-09-12T03:44:56.509Z,13.10
2017-09-12T03:47:23.962Z,13.00
2017-09-12T03:49:51.399Z,13.00
2017-09-12T03:52:18.829Z,13.00
2017-09-12T03:54:46.303Z,13.10
2017-09-12T03:57:14.492Z,13.10
2017-09-12T03:59:41.943Z,13.10
2017-09-12T04:02:10.153Z,13.10
2017-09-12T04:04:37.592Z,13.10
2017-09-12T04:07:05.022Z,13.10
2017-09-12T04:09:33.230Z,13.10
2017-09-12T04:12:00.662Z,13.10
2017-09-12T04:14:28.865Z,13.20
2017-09-12T04:16:56.293Z,13.10
2017-09-12T04:19:23.738Z,13.20
2017-09-12T04:21:51.941Z,13.20
2017-09-12T04:24:19.440Z,13.20
2017-09-12T04:26:46.892Z,13.20
2017-09-12T04:29:14.342Z,13.30
2017-09-12T04:31:41.764Z,13.20
2017-09-12T04:34:09.212Z,13.30
2017-09-12T04:36:37.410Z,13.20
2017-09-12T04:39:04.834Z,13.20
2017-09-12T04:41:33.070Z,13.20
2017-09-12T04:44:00.485Z,13.10
2017-09-12T04:46:27.920Z,13.20
2017-09-12T04:48:56.136Z,13.10
2017-09-12T04:51:23.574Z,13.10
2017-09-12T04:53:51.001Z,13.10
2017-09-12T04:56:19.218Z,13.10
2017-09-12T04:58:46.644Z,13.10
2017-09-12T05:01:14.853Z,13.10
2017-09-12T05:03:42.303Z,13.10
2017-09-12T05:06:09.750Z,13.10
2017-09-12T05:08:37.178Z,13.20
2017-09-12T05:11:04.646Z,13.20
2017-09-12T05:13:32.906Z,13.30
2017-09-12T05:16:00.345Z,13.30
2017-09-12T05:18:27.786Z,13.30
2017-09-12T05:20:55.225Z,13.40
2017-09-12T05:23:22.653Z,13.40
2017-09-12T05:25:50.100Z,13.50
2017-09-12T05:28:18.298Z,13.50
2017-09-12T05:30:45.832Z,13.50
2017-09-12T05:33:13.277Z,13.60
2017-09-12T05:35:40.715Z,13.60
2017-09-12T05:38:08.152Z,13.60
2017-09-12T05:40:35.586Z,13.60
2017-09-12T05:43:03.113Z,13.70
2017-09-12T05:45:31.384Z,13.80
2017-09-12T05:47:58.817Z,13.80
2017-09-12T05:50:26.276Z,13.80
2017-09-12T05:52:53.704Z,13.90
2017-09-12T05:55:21.137Z,14.00
2017-09-12T05:57:48.569Z,14.00
2017-09-12T06:00:16.001Z,14.10
2017-09-12T06:02:43.437Z,14.10
2017-09-12T06:05:10.869Z,14.10
2017-09-12T06:07:38.310Z,14.10
2017-09-12T06:10:06.504Z,14.30
2017-09-12T06:12:33.951Z,14.20
2017-09-12T06:15:02.152Z,14.30
2017-09-12T06:17:29.590Z,14.30
2017-09-12T06:19:59.060Z,14.30
2017-09-12T06:22:26.529Z,14.40
2017-09-12T06:24:54.721Z,14.40
2017-09-12T06:27:22.165Z,14.40
2017-09-12T06:29:50.376Z,14.60
2017-09-12T06:32:19.840Z,14.50
2017-09-12T06:34:47.260Z,14.60
2017-09-12T06:37:14.739Z,14.60
2017-09-12T06:39:42.158Z,14.60
2017-09-12T06:42:09.593Z,14.70
2017-09-12T06:44:37.023Z,14.70
2017-09-12T06:47:05.217Z,14.80
2017-09-12T06:49:32.652Z,14.80
2017-09-12T06:52:00.858Z,14.90
2017-09-12T06:54:28.276Z,14.90
2017-09-12T06:56:56.517Z,15.00
2017-09-12T06:59:23.956Z,15.10
2017-09-12T07:01:51.389Z,15.30
2017-09-12T07:04:18.850Z,15.50
2017-09-12T07:06:46.271Z,15.60
2017-09-12T07:09:13.702Z,15.70
2017-09-12T07:11:41.145Z,15.70
2017-09-12T07:14:08.582Z,15.90
2017-09-12T07:16:36.008Z,15.90
2017-09-12T07:19:04.218Z,16.00
2017-09-12T07:21:31.645Z,15.90
2017-09-12T07:24:03.406Z,16.10
2017-09-12T07:26:31.608Z,16.20
2017-09-12T07:28:59.045Z,16.20
2017-09-12T07:31:27.378Z,16.60
2017-09-12T07:33:54.813Z,16.60
2017-09-12T07:36:22.249Z,16.80
2017-09-12T07:38:51.733Z,16.80
2017-09-12T07:41:19.929Z,16.80
2017-09-12T07:43:47.365Z,16.80
2017-09-12T07:46:15.577Z,17.10
2017-09-12T07:48:43.029Z,17.10
2017-09-12T07:51:10.470Z,17.50
2017-09-12T07:53:37.909Z,17.60
2017-09-12T07:56:06.109Z,17.80
2017-09-12T07:58:33.602Z,17.90
2017-09-12T08:01:01.035Z,17.70
2017-09-12T08:03:28.560Z,17.70
2017-09-12T08:05:56.838Z,17.60
2017-09-12T08:08:25.094Z,17.60
2017-09-12T08:10:52.611Z,17.60
2017-09-12T08:13:20.046Z,18.10
2017-09-12T08:15:47.521Z,18.30
2017-09-12T08:18:14.968Z,18.10
2017-09-12T08:20:42.419Z,17.90
2017-09-12T08:23:09.846Z,17.90
2017-09-12T08:25:37.290Z,17.80
2017-09-12T08:28:04.740Z,17.80
2017-09-12T08:30:32.217Z,17.60
2017-09-12T08:33:00.417Z,17.80
2017-09-12T08:35:27.850Z,17.80
2017-09-12T08:37:56.088Z,17.80
2017-09-12T08:40:23.526Z,17.80
2017-09-12T08:42:50.953Z,17.90
2017-09-12T08:45:19.170Z,17.70
2017-09-12T08:47:46.598Z,17.70
2017-09-12T08:50:14.024Z,17.70
2017-09-12T08:52:42.221Z,18.50
2017-09-12T08:55:09.653Z,18.50
2017-09-12T08:57:37.176Z,19.00
2017-09-12T09:00:04.590Z,19.20
2017-09-12T09:02:32.798Z,19.70
2017-09-12T09:05:00.223Z,19.70
2017-09-12T09:07:27.718Z,19.70
2017-09-12T09:09:55.108Z,19.70
2017-09-12T09:12:22.551Z,20.10
2017-09-12T09:14:49.978Z,20.00
2017-09-12T09:17:18.409Z,19.50
2017-09-12T09:19:45.838Z,19.20
2017-09-12T09:22:13.286Z,19.30
2017-09-12T09:24:40.804Z,19.20
2017-09-12T09:27:09.085Z,18.70
2017-09-12T09:29:36.512Z,18.70
2017-09-12T09:32:03.954Z,18.60
2017-09-12T09:34:31.381Z,18.80
2017-09-12T09:36:58.894Z,18.90
2017-09-12T09:39:28.083Z,19.60
2017-09-12T09:41:55.519Z,19.60
2017-09-12T09:44:22.976Z,19.80
2017-09-12T09:46:50.412Z,20.30
2017-09-12T09:49:17.908Z,20.70
2017-09-12T09:51:45.333Z,21.10
2017-09-12T09:54:12.799Z,20.90
2017-09-12T09:56:40.212Z,21.00
2017-09-12T09:59:07.653Z,21.00
2017-09-12T10:01:35.845Z,20.80
2017-09-12T10:04:03.277Z,20.80
2017-09-12T10:06:31.494Z,21.10
2017-09-12T10:08:59.004Z,21.00
2017-09-12T10:11:29.279Z,20.90
2017-09-12T10:13:58.741Z,20.90
2017-09-12T10:16:27.074Z,20.20
2017-09-12T10:18:54.581Z,20.10
2017-09-12T10:21:22.773Z,19.80
2017-09-12T10:23:50.209Z,19.80
2017-09-12T10:26:18.403Z,19.40
2017-09-12T10:28:45.846Z,19.40
2017-09-12T10:31:17.174Z,18.90
2017-09-12T10:33:44.610Z,18.90
2017-09-12T10:36:12.064Z,18.80
2017-09-12T10:38:39.515Z,18.80
2017-09-12T10:41:07.030Z,18.80
2017-09-12T10:43:34.466Z,18.90
2017-09-12T10:46:02.658Z,18.80
2017-09-12T10:48:30.861Z,18.80
2017-09-12T10:50:58.339Z,18.80
2017-09-12T10:53:25.773Z,18.80
2017-09-12T10:55:53.288Z,18.90
2017-09-12T10:58:21.580Z,19.40
2017-09-12T11:00:49.787Z,19.40
2017-09-12T11:03:17.362Z,19.40
2017-09-12T11:05:44.800Z,19.50
2017-09-12T11:08:13.245Z,19.30
2017-09-12T11:10:41.442Z,18.80
2017-09-12T11:13:08.868Z,18.80
2017-09-12T11:15:36.337Z,18.80
2017-09-12T11:18:04.540Z,18.30
2017-09-12T11:20:32.003Z,18.20
2017-09-12T11:22:59.428Z,18.20
2017-09-12T11:25:27.632Z,18.00
2017-09-12T11:27:55.157Z,18.00
2017-09-12T11:30:23.360Z,18.10
2017-09-12T11:32:50.792Z,18.10
2017-09-12T11:35:18.998Z,18.20
2017-09-12T11:37:46.429Z,18.20
2017-09-12T11:40:14.657Z,18.60
2017-09-12T11:42:42.132Z,18.60
2017-09-12T11:45:09.570Z,18.70
2017-09-12T11:47:37.000Z,18.90
2017-09-12T11:50:04.522Z,18.90
2017-09-12T11:52:32.717Z,19.00
2017-09-12T11:55:00.168Z,19.00
2017-09-12T11:57:27.590Z,19.00
2017-09-12T11:59:55.018Z,18.90
2017-09-12T12:02:22.467Z,19.00
2017-09-12T12:04:49.889Z,18.90
2017-09-12T12:07:18.100Z,19.10
2017-09-12T12:09:45.530Z,19.10
2017-09-12T12:12:13.028Z,19.40
2017-09-12T12:14:40.511Z,19.40
2017-09-12T12:17:07.951Z,19.60
2017-09-12T12:19:35.509Z,19.60
2017-09-12T12:22:02.954Z,19.70
2017-09-12T12:24:30.396Z,19.70
2017-09-12T12:26:57.831Z,19.60
2017-09-12T12:29:25.265Z,19.70
2017-09-12T12:31:52.693Z,19.70
2017-09-12T12:34:20.168Z,19.60
2017-09-12T12:36:47.606Z,19.60
2017-09-12T12:39:15.089Z,19.50
2017-09-12T12:41:42.516Z,19.50
2017-09-12T12:44:09.949Z,19.50
2017-09-12T12:46:37.406Z,19.60
2017-09-12T12:49:04.913Z,19.60
2017-09-12T12:51:32.353Z,19.70
2017-09-12T12:53:59.829Z,19.80
2017-09-12T12:56:27.293Z,19.90
2017-09-12T12:58:55.493Z,20.00
2017-09-12T13:01:24.985Z,20.00
2017-09-12T13:03:53.192Z,19.90
2017-09-12T13:06:20.621Z,19.90
2017-09-12T13:08:48.829Z,19.80
2017-09-12T13:11:16.312Z,19.80
2017-09-12T13:13:43.740Z,19.80
2017-09-12T13:16:11.178Z,19.70
2017-09-12T13:18:38.619Z,19.80
2017-09-12T13:21:06.809Z,19.70
2017-09-12T13:23:34.237Z,19.70
2017-09-12T13:26:03.427Z,19.80
2017-09-12T13:28:31.815Z,19.80
2017-09-12T13:30:59.250Z,19.80
2017-09-12T13:33:26.717Z,19.80
2017-09-12T13:35:55.062Z,19.70
2017-09-12T13:38:22.503Z,19.70
2017-09-12T13:40:50.225Z,19.70
2017-09-12T13:43:17.661Z,19.70
2017-09-12T13:45:57.809Z,19.70
2017-09-12T13:48:25.653Z,19.60
2017-09-12T13:50:53.061Z,19.70
2017-09-12T13:53:21.448Z,19.70
2017-09-12T13:55:49.660Z,19.70
2017-09-12T13:58:17.098Z,19.70
2017-09-12T14:00:44.559Z,19.70
2017-09-12T14:03:12.006Z,19.70
2017-09-12T14:05:39.493Z,19.70
2017-09-12T14:08:08.843Z,19.70
2017-09-12T14:10:36.309Z,19.70
2017-09-12T14:13:04.581Z,19.70
2017-09-12T14:15:34.147Z,19.70
2017-09-12T14:18:05.075Z,19.70
2017-09-12T14:20:32.681Z,19.70
2017-09-12T14:23:00.117Z,19.70
2017-09-12T14:25:29.603Z,19.80
2017-09-12T14:27:57.072Z,19.80
2017-09-12T14:30:25.541Z,19.80
2017-09-12T14:32:53.018Z,19.80
2017-09-12T14:56:44.365Z,19.50
2017-09-12T14:59:11.883Z,19.40
2017-09-12T15:01:41.085Z,19.50
2017-09-12T15:04:08.730Z,19.30
2017-09-12T15:06:38.994Z,19.40
2017-09-12T15:09:06.471Z,19.40
2017-09-12T15:11:34.243Z,19.30
2017-09-12T15:14:01.715Z,19.30
2017-09-12T15:16:29.181Z,19.20
2017-09-12T15:18:56.615Z,19.20
2017-09-12T15:21:32.063Z,19.00
2017-09-12T15:23:59.494Z,19.00
2017-09-12T15:26:26.946Z,19.00
2017-09-12T15:28:54.394Z,18.90
2017-09-12T15:31:21.860Z,18.80
2017-09-12T15:33:49.381Z,18.90
2017-09-12T15:36:17.592Z,19.00
2017-09-12T15:38:45.024Z,19.00
2017-09-12T15:41:12.464Z,19.00
2017-09-12T15:43:40.659Z,19.00
2017-09-12T15:46:14.836Z,19.00
2017-09-12T15:48:42.298Z,18.90
2017-09-12T15:51:09.734Z,18.90
2017-09-12T15:53:37.166Z,19.00
2017-09-12T15:56:04.602Z,18.90
2017-09-12T15:58:33.149Z,18.90
2017-09-12T16:01:00.585Z,18.90
2017-09-12T16:03:28.015Z,18.90
2017-09-12T16:05:55.534Z,18.80
2017-09-12T16:08:23.920Z,18.70
2017-09-12T16:10:52.127Z,18.70
2017-09-12T16:13:19.558Z,18.70
2017-09-12T16:15:46.997Z,18.50
2017-09-12T16:18:14.452Z,18.40
2017-09-12T16:20:42.655Z,18.40
2017-09-12T16:23:10.099Z,18.40
2017-09-12T16:25:38.312Z,18.30
2017-09-12T16:28:05.766Z,18.30
2017-09-12T16:30:33.284Z,18.20
2017-09-12T16:33:00.731Z,18.20
2017-09-12T16:35:28.157Z,18.10
2017-09-12T16:37:55.599Z,18.10
2017-09-12T16:40:23.029Z,18.00
2017-09-12T16:42:50.476Z,18.00
2017-09-12T16:45:17.939Z,18.00
2017-09-12T16:47:45.416Z,17.90
2017-09-12T16:50:12.923Z,17.90
2017-09-12T16:52:40.361Z,17.90
2017-09-12T16:55:07.840Z,17.80
2017-09-12T16:57:35.281Z,17.80
2017-09-12T17:00:02.764Z,17.80
2017-09-12T17:02:31.209Z,17.60
2017-09-12T17:04:59.739Z,17.60
2017-09-12T17:07:27.981Z,17.50
2017-09-12T17:09:55.429Z,17.50
2017-09-12T17:12:22.869Z,17.50
2017-09-12T17:14:50.314Z,17.40
2017-09-12T17:17:18.525Z,17.40
2017-09-12T17:19:45.969Z,17.40
2017-09-12T17:22:13.476Z,17.40
2017-09-12T17:24:40.925Z,17.40
2017-09-12T17:27:09.189Z,17.30
2017-09-12T17:29:36.652Z,17.30
2017-09-12T17:32:04.870Z,17.20
2017-09-12T17:34:32.327Z,17.20
2017-09-12T17:36:59.771Z,17.20
2017-09-12T17:39:27.302Z,17.10
2017-09-12T17:41:55.501Z,17.10
2017-09-12T17:44:22.941Z,17.10
2017-09-12T17:46:51.145Z,17.10
2017-09-12T17:49:18.588Z,17.10
2017-09-12T17:51:46.174Z,17.10
2017-09-12T17:54:13.609Z,17.10
2017-09-12T17:56:41.042Z,17.00
2017-09-12T17:59:09.252Z,16.90
2017-09-12T18:01:36.710Z,16.90
2017-09-12T18:04:04.229Z,16.80
2017-09-12T18:06:32.549Z,16.70
2017-09-12T18:09:00.069Z,16.60
2017-09-12T18:11:28.341Z,16.50
2017-09-12T18:13:56.541Z,16.40
2017-09-12T18:16:23.982Z,16.40
2017-09-12T18:18:52.249Z,16.40
2017-09-12T18:21:20.668Z,16.30
2017-09-12T18:23:48.112Z,16.30
2017-09-12T18:26:15.561Z,16.30
2017-09-12T18:28:43.781Z,16.30
2017-09-12T18:31:11.214Z,16.20
2017-09-12T18:33:38.655Z,16.20
2017-09-12T18:36:06.194Z,16.10
2017-09-12T18:38:34.408Z,16.10
2017-09-12T18:41:03.888Z,16.10
2017-09-12T18:43:31.509Z,16.10
2017-09-12T18:45:58.996Z,16.10
2017-09-12T18:48:27.197Z,16.20
2017-09-12T18:50:54.633Z,16.10
2017-09-12T18:53:22.834Z,16.20
2017-09-12T18:55:50.286Z,16.10
2017-09-12T18:58:17.717Z,16.20
2017-09-12T19:00:47.048Z,16.10
2017-09-12T19:03:14.481Z,16.10
2017-09-12T19:05:42.688Z,16.20
2017-09-12T19:08:10.320Z,16.20
2017-09-12T19:10:38.541Z,16.10
2017-09-12T19:13:06.250Z,16.10
2017-09-12T19:15:34.511Z,16.10
2017-09-12T19:18:02.810Z,16.10
2017-09-12T19:20:30.245Z,16.10
2017-09-12T19:22:58.497Z,16.00
2017-09-12T19:25:25.919Z,16.10
2017-09-12T19:27:53.364Z,16.10
2017-09-12T19:30:21.821Z,16.10
2017-09-12T19:32:50.099Z,16.00
2017-09-12T19:35:18.297Z,16.10
2017-09-12T19:37:45.746Z,16.10
2017-09-12T19:40:13.174Z,16.00
2017-09-12T19:42:40.617Z,16.00
2017-09-12T19:45:08.092Z,16.00
2017-09-12T19:47:35.570Z,16.00
2017-09-12T19:50:04.762Z,16.00
2017-09-12T19:52:33.965Z,15.90
2017-09-12T19:55:02.230Z,15.80
2017-09-12T19:57:30.511Z,15.90
2017-09-12T19:59:58.701Z,15.90
2017-09-12T20:02:26.138Z,15.90
2017-09-12T20:04:55.428Z,15.80
2017-09-12T20:07:22.881Z,15.80
2017-09-12T20:09:50.342Z,15.70
2017-09-12T20:12:17.785Z,15.70
2017-09-12T20:14:45.222Z,15.70
2017-09-12T20:17:12.659Z,15.60
2017-09-12T20:19:40.265Z,15.60
2017-09-12T20:22:07.726Z,15.60
2017-09-12T20:24:36.022Z,15.60
2017-09-12T20:27:04.212Z,15.50
2017-09-12T20:29:31.650Z,15.50
2017-09-12T20:31:59.850Z,15.40
2017-09-12T20:34:27.294Z,15.40
2017-09-12T20:36:54.725Z,15.40
2017-09-12T20:39:22.161Z,15.50
2017-09-12T20:41:49.605Z,15.50
2017-09-12T20:44:17.047Z,15.40
2017-09-12T20:46:44.475Z,15.30
2017-09-12T20:49:12.685Z,15.20
2017-09-12T20:51:40.122Z,15.20
2017-09-12T20:54:07.554Z,15.20
2017-09-12T20:56:35.765Z,15.20
2017-09-12T20:59:03.217Z,15.10
2017-09-12T21:01:30.637Z,15.20
2017-09-12T21:03:58.860Z,15.20
2017-09-12T21:06:26.298Z,15.20
2017-09-12T21:08:53.720Z,15.20
2017-09-12T21:11:21.922Z,15.10
2017-09-12T21:13:49.357Z,15.10
2017-09-12T21:16:17.561Z,15.10
2017-09-12T21:18:44.993Z,15.10
2017-09-12T21:21:13.205Z,15.20
2017-09-12T21:23:40.629Z,15.10
2017-09-12T21:26:08.845Z,15.20
2017-09-12T21:28:36.268Z,15.10
2017-09-12T21:31:03.701Z,15.20
2017-09-12T21:33:31.134Z,15.20
2017-09-12T21:35:58.577Z,15.10
2017-09-12T21:38:26.019Z,15.10
2017-09-12T21:40:55.485Z,15.00
2017-09-12T21:43:23.691Z,14.80
2017-09-12T21:45:51.131Z,14.80
2017-09-12T21:48:18.569Z,14.80
2017-09-12T21:50:46.782Z,14.70
2017-09-12T21:53:14.203Z,14.70
2017-09-12T21:55:42.405Z,14.60
2017-09-12T21:58:09.845Z,14.60
2017-09-12T22:00:38.054Z,14.60
2017-09-12T22:03:05.493Z,14.50
2017-09-12T22:05:32.936Z,14.60
2017-09-12T22:08:01.150Z,14.60
2017-09-12T22:10:28.654Z,14.60
2017-09-12T22:12:56.865Z,14.50
2017-09-12T22:15:24.315Z,14.50
2017-09-12T22:17:51.748Z,14.50
2017-09-12T22:20:19.944Z,14.20
2017-09-12T22:22:47.386Z,14.20
2017-09-12T22:25:15.578Z,14.10
2017-09-12T22:27:43.031Z,14.10
2017-09-12T22:30:10.452Z,14.20
2017-09-12T22:32:37.896Z,14.20
2017-09-12T22:35:05.324Z,14.10
2017-09-12T22:37:32.762Z,14.10
2017-09-12T22:40:00.199Z,14.10
2017-09-12T22:42:28.409Z,14.00
2017-09-12T22:44:55.845Z,14.00
2017-09-12T22:47:23.271Z,14.00
2017-09-12T22:49:50.708Z,13.90
2017-09-12T22:52:18.141Z,13.90
2017-09-12T22:54:45.589Z,14.00
2017-09-12T22:57:13.026Z,13.90
2017-09-12T22:59:40.463Z,13.90
2017-09-12T23:02:08.664Z,13.90
2017-09-12T23:04:36.093Z,13.90
2017-09-12T23:07:04.288Z,14.00
2017-09-12T23:09:31.727Z,14.00
2017-09-12T23:11:59.933Z,14.00
2017-09-12T23:14:27.382Z,14.00
2017-09-12T23:16:54.809Z,14.00
2017-09-12T23:19:23.015Z,13.90
2017-09-12T23:21:50.456Z,13.90
2017-09-12T23:24:18.654Z,14.00
2017-09-12T23:26:46.089Z,14.00
2017-09-12T23:29:14.302Z,14.00
2017-09-12T23:31:41.734Z,14.00
2017-09-12T23:34:09.172Z,14.00
2017-09-12T23:36:37.361Z,14.00
2017-09-12T23:39:04.801Z,14.00
2017-09-12T23:41:32.240Z,14.00
2017-09-12T23:43:59.665Z,13.90
2017-09-12T23:46:27.872Z,13.90
2017-09-12T23:48:55.313Z,13.90
2017-09-12T23:51:22.754Z,13.90
2017-09-12T23:53:50.177Z,13.90
2017-09-12T23:56:17.608Z,13.90
2017-09-12T23:58:45.806Z,13.80
